FIE weather

Fair Isle Airport
Fair Isle, Scotland, United Kingdom

Public forecast

Using degrees Celsius for public forecast. Weather courtesy of forecast.io.

METAR (pilot weather report)

Closest report is Sumburgh Airport, 22.9 nm (42.5 km) NNE. Retrieved 2019/05/22 10:20 UTC (0 seconds ago):

EGPB 221020Z 35006KT 5000 -DZ BR SCT003 BKN005 10/09 Q1009 RERA

TAF (pilot weather forecast)

Forecast is more than 12 hours old.

Closest forecast is Scatsta Airport, 54.8 nm (101.4 km) N. Retrieved 2013/04/29 03:39 UTC (6 years ago):

TAF TAF EGPM 290337Z 2903/2915 22005KT 9999 SCT030 PROB30 TEMPO 2903/2906 7000 SHRAGS BECMG 2906/2909 32015KT PROB40 TEMPO 2906/2915 6000 SHRA SHGS BKN012CB